Time;durP1;ratioP1;P1;durP2;ratioP2;P2;SDS_P1;SDS_P2;PMS_P1;PMS_P2;Temp;Humidity;BMP_temperature;BMP_pressure;BME280_temperature;BME280_humidity;BME280_pressure;Samples;Min_cycle;Max_cycle;Signal;HPM_P1;HPM_P2
2021/08/05 00:01:47;;;;;;;3.45;3.15;;;23.70;58.50;;;;;;5063815;28;20028;-36
2021/08/05 00:04:13;;;;;;;3.67;3.07;;;23.70;58.60;;;;;;5063559;28;20127;-36
2021/08/05 00:06:40;;;;;;;3.50;2.88;;;23.70;58.70;;;;;;5063511;28;20033;-37
2021/08/05 00:09:06;;;;;;;3.13;2.70;;;23.70;58.80;;;;;;5070427;28;20428;-36
2021/08/05 00:11:32;;;;;;;3.42;2.90;;;23.70;58.90;;;;;;5083716;28;20050;-36
2021/08/05 00:13:58;;;;;;;3.53;3.22;;;23.80;59.20;;;;;;5068315;28;20043;-36
2021/08/05 00:16:24;;;;;;;3.43;3.07;;;23.80;59.30;;;;;;5063313;28;20049;-36
2021/08/05 00:18:51;;;;;;;3.30;3.00;;;23.80;59.50;;;;;;5063323;28;20086;-36
2021/08/05 00:21:20;;;;;;;3.55;3.10;;;23.80;59.70;;;;;;5063273;28;20525;-37
2021/08/05 00:23:46;;;;;;;3.47;2.80;;;23.80;59.80;;;;;;5063119;28;20036;-36
2021/08/05 00:26:13;;;;;;;2.83;2.63;;;23.80;60.00;;;;;;5064318;28;20025;-36
2021/08/05 00:28:40;;;;;;;3.30;2.90;;;23.80;60.10;;;;;;5063203;28;20621;-36
2021/08/05 00:31:06;;;;;;;3.42;3.13;;;23.90;61.10;;;;;;5063213;28;20104;-37
2021/08/05 00:33:32;;;;;;;3.80;3.38;;;23.90;60.50;;;;;;5063208;28;20064;-37
2021/08/05 00:35:58;;;;;;;3.57;3.10;;;23.90;60.60;;;;;;5066426;28;20029;-37
2021/08/05 00:38:25;;;;;;;3.43;3.10;;;23.90;60.60;;;;;;5078133;28;20487;-36
2021/08/05 00:40:52;;;;;;;3.67;3.38;;;23.90;60.70;;;;;;5061451;28;20028;-36
2021/08/05 00:43:18;;;;;;;;;;;23.90;60.70;;;;;;5063386;28;20037;-37
2021/08/05 00:45:48;;;;;;;4.03;3.63;;;23.90;60.80;;;;;;5062612;28;19908;-37
2021/08/05 00:48:14;;;;;;;3.95;3.25;;;23.90;60.90;;;;;;5063129;28;20052;-37
2021/08/05 00:50:40;;;;;;;3.83;3.43;;;24.00;61.10;;;;;;5062810;28;20032;-37
2021/08/05 00:53:06;;;;;;;4.00;3.60;;;24.00;61.10;;;;;;5062848;28;20037;-36
2021/08/05 00:55:33;;;;;;;4.25;3.85;;;24.00;61.20;;;;;;5062690;28;20029;-37
2021/08/05 00:57:59;;;;;;;3.73;3.30;;;24.00;61.40;;;;;;5062792;28;20489;-37
2021/08/05 01:00:25;;;;;;;4.13;3.67;;;24.00;61.50;;;;;;5062602;28;20031;-36
2021/08/05 01:02:59;;;;;;;4.37;3.93;;;24.00;61.60;;;;;;5061418;28;20268;-36
2021/08/05 01:05:27;;;;;;;4.30;3.90;;;24.00;61.70;;;;;;5061033;28;20036;-37
2021/08/05 01:08:13;;;;;;;4.05;3.65;;;24.00;61.80;;;;;;5044890;28;20024;-37
2021/08/05 01:11:02;;;;;;;4.32;3.92;;;24.00;61.90;;;;;;5078297;28;20051;-37
2021/08/05 01:13:31;;;;;;;5.82;4.03;;;24.10;62.00;;;;;;5081371;28;20032;-37
2021/08/05 01:15:57;;;;;;;5.63;3.72;;;24.10;62.10;;;;;;5082637;28;20020;-37
2021/08/05 01:18:25;;;;;;;4.20;3.80;;;24.10;62.10;;;;;;5081272;28;20091;-37
2021/08/05 01:20:51;;;;;;;5.93;3.90;;;24.10;62.20;;;;;;5082161;28;20516;-37
2021/08/05 01:23:38;;;;;;;5.07;4.03;;;24.10;62.20;;;;;;5082345;28;20062;-37
2021/08/05 01:26:26;;;;;;;5.15;4.38;;;24.10;62.20;;;;;;5082505;28;20020;-37
2021/08/05 01:28:52;;;;;;;4.70;4.20;;;24.10;62.30;;;;;;5081130;28;20029;-37
2021/08/05 01:31:19;;;;;;;5.18;4.43;;;24.10;62.30;;;;;;5081109;28;20036;-37
2021/08/05 01:33:46;;;;;;;5.20;4.60;;;24.10;62.30;;;;;;5080742;28;20309;-37
2021/08/05 01:36:13;;;;;;;5.28;4.72;;;24.10;63.10;;;;;;5081220;28;20028;-37
2021/08/05 01:38:39;;;;;;;5.40;4.63;;;24.20;62.60;;;;;;5065762;28;20112;-37
2021/08/05 01:41:05;;;;;;;5.63;4.60;;;24.20;62.60;;;;;;5080771;28;20068;-37
2021/08/05 01:43:32;;;;;;;5.28;4.78;;;24.20;62.60;;;;;;5080941;28;20035;-37
2021/08/05 01:45:58;;;;;;;5.53;4.97;;;24.20;62.70;;;;;;5080867;28;20041;-36
2021/08/05 01:48:24;;;;;;;6.10;4.57;;;24.20;62.80;;;;;;5081024;28;20029;-36
2021/08/05 01:50:51;;;;;;;5.55;4.88;;;24.20;62.80;;;;;;5080778;28;20073;-36
2021/08/05 01:53:17;;;;;;;5.63;4.90;;;24.20;62.80;;;;;;5081876;28;20025;-37
2021/08/05 01:55:43;;;;;;;5.60;5.03;;;24.20;62.90;;;;;;5080802;28;20348;-36
2021/08/05 01:58:09;;;;;;;5.87;5.27;;;24.20;62.90;;;;;;5085054;28;20020;-37
2021/08/05 02:00:36;;;;;;;6.30;5.13;;;24.20;63.00;;;;;;5086194;28;20101;-37
2021/08/05 02:03:03;;;;;;;6.03;4.90;;;24.20;63.00;;;;;;5085773;28;20056;-37
2021/08/05 02:05:38;;;;;;;8.77;5.63;;;24.20;63.00;;;;;;5084415;28;20277;-37
2021/08/05 02:08:09;;;;;;;5.97;5.38;;;24.30;63.10;;;;;;5071266;28;20076;-37
2021/08/05 02:10:36;;;;;;;5.90;5.28;;;24.30;63.10;;;;;;5083191;28;20028;-37
2021/08/05 02:13:17;;;;;;;6.60;5.90;;;24.30;63.20;;;;;;5085580;28;20025;-37
2021/08/05 02:15:46;;;;;;;5.63;5.10;;;24.30;63.30;;;;;;5085452;28;20091;-37
2021/08/05 02:18:13;;;;;;;6.00;5.40;;;24.30;63.20;;;;;;5084360;28;20035;-36
2021/08/05 02:20:39;;;;;;;5.50;5.00;;;24.30;63.30;;;;;;5083075;28;20125;-37
2021/08/05 02:23:05;;;;;;;6.25;5.60;;;24.30;63.30;;;;;;5081585;28;20114;-37
2021/08/05 02:25:32;;;;;;;5.95;5.35;;;24.30;63.30;;;;;;5085458;28;20051;-37
2021/08/05 02:27:58;;;;;;;7.22;5.72;;;24.30;63.40;;;;;;5084133;28;20032;-37
2021/08/05 02:30:24;;;;;;;6.70;5.70;;;24.30;63.40;;;;;;5083915;28;20051;-37
2021/08/05 02:32:50;;;;;;;6.95;6.20;;;24.30;63.40;;;;;;5083754;28;20036;-37
2021/08/05 02:35:16;;;;;;;6.03;5.28;;;24.30;63.40;;;;;;5080563;28;20025;-37
2021/08/05 02:37:42;;;;;;;5.93;5.32;;;24.30;63.40;;;;;;5075011;28;20035;-37
2021/08/05 02:40:09;;;;;;;6.50;5.43;;;24.30;63.40;;;;;;5079161;28;20032;-37
2021/08/05 02:42:35;;;;;;;6.65;5.95;;;24.30;63.40;;;;;;5083624;28;20092;-37
2021/08/05 02:45:02;;;;;;;6.70;6.07;;;24.30;63.40;;;;;;5083803;28;20040;-37
2021/08/05 02:47:28;;;;;;;7.88;6.70;;;24.30;63.40;;;;;;5085218;28;20564;-37
2021/08/05 02:49:54;;;;;;;6.32;5.72;;;24.30;63.40;;;;;;5083663;28;20037;-37
2021/08/05 02:52:21;;;;;;;6.63;5.70;;;24.30;63.50;;;;;;5083665;28;20021;-37
2021/08/05 02:54:47;;;;;;;6.05;5.43;;;24.30;63.40;;;;;;5083426;28;20029;-37
2021/08/05 02:57:13;;;;;;;7.38;5.88;;;24.30;63.50;;;;;;5083496;28;20056;-37
2021/08/05 02:59:39;;;;;;;7.35;5.97;;;24.30;63.50;;;;;;5083563;28;20063;-37
2021/08/05 03:02:06;;;;;;;6.20;5.43;;;24.30;63.50;;;;;;5083350;28;20021;-37
2021/08/05 03:04:33;;;;;;;5.88;5.28;;;24.30;63.70;;;;;;5084747;28;20036;-37
2021/08/05 03:06:59;;;;;;;6.60;5.90;;;24.30;63.60;;;;;;5079156;28;20032;-37
2021/08/05 03:09:25;;;;;;;7.32;6.15;;;24.30;63.60;;;;;;5063124;28;20045;-37
2021/08/05 03:11:52;;;;;;;6.90;6.00;;;24.30;63.60;;;;;;5064537;28;20032;-37
2021/08/05 03:14:18;;;;;;;6.93;6.07;;;24.30;63.60;;;;;;5076256;28;20743;-37
2021/08/05 03:16:44;;;;;;;7.15;6.45;;;24.30;63.70;;;;;;5084764;28;20021;-37
2021/08/05 03:19:10;;;;;;;6.43;5.78;;;24.30;63.70;;;;;;5084460;28;20070;-37
2021/08/05 03:21:36;;;;;;;6.82;6.13;;;24.30;63.60;;;;;;5084226;28;20044;-37
2021/08/05 03:24:02;;;;;;;7.30;6.53;;;24.30;63.60;;;;;;5065900;28;20044;-37
2021/08/05 03:26:29;;;;;;;7.67;5.67;;;24.30;63.60;;;;;;5084176;28;20024;-37
2021/08/05 03:28:55;;;;;;;7.57;6.78;;;24.30;63.60;;;;;;5084261;28;20033;-37
2021/08/05 03:31:21;;;;;;;6.70;6.00;;;24.30;63.60;;;;;;5084285;28;20020;-37
2021/08/05 03:33:47;;;;;;;7.60;6.35;;;24.30;63.60;;;;;;5083863;28;20029;-37
2021/08/05 03:36:13;;;;;;;9.20;6.97;;;24.30;63.70;;;;;;5084087;28;20038;-37
2021/08/05 03:38:40;;;;;;;8.38;6.75;;;24.30;63.80;;;;;;5068903;28;20499;-37
2021/08/05 03:41:06;;;;;;;8.00;6.43;;;24.30;63.80;;;;;;5084035;28;20071;-37
2021/08/05 03:43:33;;;;;;;8.48;6.68;;;24.30;63.80;;;;;;5083596;28;20051;-37
2021/08/05 03:45:59;;;;;;;;;;;24.30;63.90;;;;;;5084356;28;20104;-37
2021/08/05 03:48:25;;;;;;;7.20;6.40;;;24.30;63.90;;;;;;5083832;28;19974;-37
2021/08/05 03:50:51;;;;;;;7.65;6.43;;;24.30;63.90;;;;;;5083796;28;20024;-37
2021/08/05 03:53:17;;;;;;;7.47;6.68;;;24.30;63.80;;;;;;5083477;28;20032;-37
2021/08/05 03:55:43;;;;;;;8.52;6.65;;;24.30;63.80;;;;;;5083725;28;20131;-37
2021/08/05 03:58:10;;;;;;;7.95;6.65;;;24.30;63.90;;;;;;5083509;28;20037;-37
2021/08/05 04:00:36;;;;;;;9.13;6.57;;;24.30;63.80;;;;;;5083655;28;20051;-37
2021/08/05 04:03:03;;;;;;;7.40;6.60;;;24.30;63.90;;;;;;5083348;28;20048;-37
2021/08/05 04:05:29;;;;;;;7.75;6.53;;;24.30;63.90;;;;;;5083351;28;20060;-37
2021/08/05 04:07:55;;;;;;;8.07;7.00;;;24.30;64.10;;;;;;5071284;28;20029;-37
2021/08/05 04:10:21;;;;;;;8.65;7.38;;;24.30;64.20;;;;;;5080476;28;20130;-37
2021/08/05 04:12:47;;;;;;;8.45;7.28;;;24.30;64.20;;;;;;5083283;28;20025;-37
2021/08/05 04:15:13;;;;;;;8.82;7.15;;;24.30;64.20;;;;;;5082078;28;20662;-37
2021/08/05 04:17:40;;;;;;;8.35;7.25;;;24.30;64.40;;;;;;5065334;28;20093;-37
2021/08/05 04:20:07;;;;;;;8.57;7.53;;;24.20;64.30;;;;;;5062627;28;20024;-37
2021/08/05 04:22:33;;;;;;;8.02;6.95;;;24.20;64.30;;;;;;5061683;28;20139;-37
2021/08/05 04:24:59;;;;;;;8.90;8.00;;;24.20;64.40;;;;;;5062741;28;20056;-39
2021/08/05 04:27:25;;;;;;;8.35;7.22;;;24.20;64.30;;;;;;5062959;28;20028;-37
2021/08/05 04:29:51;;;;;;;7.90;7.10;;;24.20;64.40;;;;;;5063028;28;20029;-37
2021/08/05 04:32:18;;;;;;;7.85;7.05;;;24.20;64.30;;;;;;5065566;28;20025;-37
2021/08/05 04:34:44;;;;;;;8.77;7.88;;;24.20;64.30;;;;;;5062569;28;20035;-37
2021/08/05 04:37:10;;;;;;;8.40;7.43;;;24.20;64.40;;;;;;5062893;28;20040;-37
2021/08/05 04:39:38;;;;;;;8.90;7.55;;;24.20;64.30;;;;;;5073741;28;20028;-37
2021/08/05 04:42:04;;;;;;;9.27;7.80;;;24.20;64.30;;;;;;5082942;28;20055;-37
2021/08/05 04:44:30;;;;;;;9.43;7.93;;;24.20;64.50;;;;;;5082602;28;20528;-37
2021/08/05 04:46:56;;;;;;;9.27;8.15;;;24.20;64.50;;;;;;5082847;28;20032;-37
2021/08/05 04:49:24;;;;;;;10.38;8.10;;;24.20;64.70;;;;;;5082629;28;20031;-37
2021/08/05 04:51:53;;;;;;;8.88;7.80;;;24.20;64.70;;;;;;5082625;28;20088;-37
2021/08/05 04:54:22;;;;;;;8.60;7.70;;;24.20;64.50;;;;;;5082388;28;20131;-37
2021/08/05 04:56:49;;;;;;;9.73;8.23;;;24.20;64.50;;;;;;5081153;28;20047;-37
2021/08/05 04:59:15;;;;;;;8.93;8.03;;;24.10;64.50;;;;;;5082598;28;20029;-37
2021/08/05 05:01:43;;;;;;;9.65;8.65;;;24.10;64.40;;;;;;5082724;28;20261;-36
2021/08/05 05:04:11;;;;;;;9.70;8.70;;;24.10;64.60;;;;;;5082129;28;20036;-37
2021/08/05 05:06:38;;;;;;;9.45;8.40;;;24.10;64.70;;;;;;5081266;28;20024;-36
2021/08/05 05:09:04;;;;;;;9.50;8.32;;;24.10;64.70;;;;;;5068930;28;20082;-37
2021/08/05 05:11:30;;;;;;;8.50;7.47;;;24.10;64.60;;;;;;5082387;28;20094;-37
2021/08/05 05:13:57;;;;;;;8.70;7.80;;;24.10;64.60;;;;;;5082358;28;20462;-37
2021/08/05 05:16:23;;;;;;;9.27;8.30;;;24.10;64.90;;;;;;5064965;28;20037;-37
2021/08/05 05:18:49;;;;;;;8.25;7.45;;;24.10;64.60;;;;;;5062483;28;20040;-37
2021/08/05 05:21:15;;;;;;;8.93;8.03;;;24.10;64.60;;;;;;5062302;28;20134;-37
2021/08/05 05:23:42;;;;;;;9.30;8.05;;;24.10;64.60;;;;;;5062046;28;20038;-37
2021/08/05 05:26:08;;;;;;;9.68;8.27;;;24.10;64.60;;;;;;5061990;28;20036;-37
2021/08/05 05:28:34;;;;;;;8.90;7.97;;;24.10;64.30;;;;;;5062332;28;20017;-37
2021/08/05 05:31:01;;;;;;;10.50;8.43;;;24.10;64.40;;;;;;5062312;28;20028;-37
2021/08/05 05:33:27;;;;;;;8.80;7.75;;;24.10;64.30;;;;;;5064631;28;20029;-37
2021/08/05 05:35:53;;;;;;;9.47;8.00;;;24.00;64.10;;;;;;5065933;28;20037;-38
2021/08/05 05:38:19;;;;;;;9.45;8.55;;;24.00;64.20;;;;;;5066452;28;20033;-36
2021/08/05 05:40:45;;;;;;;9.52;8.23;;;24.00;64.10;;;;;;5086174;28;20048;-36
2021/08/05 05:43:12;;;;;;;9.02;8.13;;;24.00;64.20;;;;;;5086310;28;20115;-41
2021/08/05 05:45:39;;;;;;;9.63;7.82;;;24.00;64.20;;;;;;5085974;28;20633;-37
2021/08/05 05:48:06;;;;;;;9.55;8.55;;;24.00;64.20;;;;;;5086057;28;20041;-36
2021/08/05 05:50:34;;;;;;;9.02;8.05;;;24.00;64.20;;;;;;5085985;28;20058;-37
2021/08/05 05:53:00;;;;;;;9.20;7.88;;;24.00;64.30;;;;;;5086104;28;20036;-37
2021/08/05 05:55:26;;;;;;;9.37;8.17;;;24.00;64.20;;;;;;5085404;28;20060;-37
2021/08/05 05:57:52;;;;;;;9.60;8.40;;;24.00;64.20;;;;;;5086119;28;20716;-37
2021/08/05 06:00:18;;;;;;;9.18;8.15;;;24.00;64.20;;;;;;5083380;28;20112;-37
2021/08/05 06:02:45;;;;;;;8.90;8.00;;;24.00;64.20;;;;;;5044464;28;20040;-37
2021/08/05 06:05:11;;;;;;;8.82;7.93;;;24.00;64.20;;;;;;5045566;28;20041;-37
2021/08/05 06:07:47;;;;;;;9.33;8.33;;;24.00;64.20;;;;;;5045751;28;20024;-37
2021/08/05 06:10:14;;;;;;;9.02;8.13;;;24.00;64.20;;;;;;5077748;28;20021;-37
2021/08/05 06:12:40;;;;;;;9.43;8.43;;;23.90;64.20;;;;;;5082663;28;20493;-37
2021/08/05 06:15:07;;;;;;;9.70;8.63;;;23.90;64.10;;;;;;5083935;28;20037;-37
2021/08/05 06:17:33;;;;;;;9.18;8.18;;;23.90;64.20;;;;;;5085534;28;20265;-37
2021/08/05 06:20:00;;;;;;;10.55;7.95;;;23.90;64.20;;;;;;5085573;28;20044;-37
2021/08/05 06:22:26;;;;;;;9.23;8.27;;;23.90;64.20;;;;;;5085195;28;20045;-37
2021/08/05 06:24:52;;;;;;;9.35;8.38;;;23.90;64.20;;;;;;5085200;28;20043;-36
2021/08/05 06:27:22;;;;;;;10.85;8.32;;;23.90;64.30;;;;;;5085205;28;20032;-37
2021/08/05 06:29:49;;;;;;;9.27;7.97;;;23.90;64.30;;;;;;5085367;28;20028;-37
2021/08/05 06:32:15;;;;;;;9.25;8.18;;;23.90;64.30;;;;;;5082125;28;20024;-37
2021/08/05 06:34:41;;;;;;;9.98;8.73;;;23.90;64.40;;;;;;5085147;28;20028;-37
2021/08/05 06:37:07;;;;;;;10.80;8.50;;;23.90;64.40;;;;;;5079495;28;20029;-37
2021/08/05 06:39:34;;;;;;;8.80;7.88;;;23.90;64.50;;;;;;5075736;28;20109;-37
2021/08/05 06:42:00;;;;;;;9.63;8.38;;;23.90;64.50;;;;;;5084968;28;20039;-37
2021/08/05 06:44:26;;;;;;;9.13;8.15;;;23.90;64.50;;;;;;5084624;28;20047;-37
2021/08/05 06:46:52;;;;;;;9.77;8.77;;;23.80;64.50;;;;;;5084730;28;20143;-37
2021/08/05 06:49:18;;;;;;;9.18;8.20;;;23.80;64.50;;;;;;5085098;28;20028;-37
2021/08/05 06:51:44;;;;;;;10.10;9.02;;;23.80;64.50;;;;;;5084779;28;20113;-37
2021/08/05 06:54:10;;;;;;;9.13;8.23;;;23.80;64.50;;;;;;5084606;28;20050;-37
2021/08/05 06:56:37;;;;;;;9.38;8.38;;;23.80;64.50;;;;;;5084495;28;20031;-37
2021/08/05 06:59:03;;;;;;;8.85;7.95;;;23.80;64.50;;;;;;5084901;28;20034;-37
2021/08/05 07:01:29;;;;;;;9.65;8.50;;;23.80;64.60;;;;;;5084870;28;20066;-37
2021/08/05 07:03:56;;;;;;;9.52;8.52;;;23.80;64.60;;;;;;5084678;28;20032;-37
2021/08/05 07:06:22;;;;;;;11.18;8.05;;;23.80;64.60;;;;;;5084260;28;20051;-37
2021/08/05 07:08:50;;;;;;;9.13;7.93;;;23.80;64.60;;;;;;5069581;28;20039;-37
2021/08/05 07:11:16;;;;;;;9.20;8.13;;;23.80;64.70;;;;;;5084469;28;20046;-37
2021/08/05 07:13:42;;;;;;;9.85;8.75;;;23.80;64.60;;;;;;5084588;28;20013;-37
2021/08/05 07:16:09;;;;;;;9.30;8.30;;;23.70;64.60;;;;;;5084296;28;20036;-36
2021/08/05 07:18:35;;;;;;;9.93;8.90;;;23.70;64.70;;;;;;5082613;28;20527;-37
2021/08/05 07:21:01;;;;;;;11.00;8.70;;;23.70;64.70;;;;;;5083944;28;20048;-37
2021/08/05 07:23:27;;;;;;;9.30;8.30;;;23.70;64.70;;;;;;5084067;28;20052;-37
2021/08/05 07:25:53;;;;;;;9.10;8.23;;;23.70;64.70;;;;;;5084050;28;20112;-37
2021/08/05 07:28:20;;;;;;;10.18;9.07;;;23.70;64.80;;;;;;5083010;28;20040;-37
2021/08/05 07:30:46;;;;;;;9.80;8.40;;;23.70;64.70;;;;;;5084131;28;20031;-37
2021/08/05 07:33:12;;;;;;;10.23;9.13;;;23.70;64.80;;;;;;5084191;28;20167;-37
2021/08/05 07:35:38;;;;;;;10.43;8.48;;;23.70;64.80;;;;;;5083934;28;20032;-37
2021/08/05 07:38:04;;;;;;;9.57;8.57;;;23.70;64.90;;;;;;5070410;28;20029;-37
2021/08/05 07:40:30;;;;;;;9.73;8.32;;;23.70;64.90;;;;;;5082259;28;20051;-37
2021/08/05 07:42:57;;;;;;;9.38;8.35;;;23.70;65.60;;;;;;5083951;28;20093;-37
2021/08/05 07:45:23;;;;;;;10.23;9.23;;;23.70;64.90;;;;;;5083825;28;20128;-37
2021/08/05 07:47:49;;;;;;;9.25;8.35;;;23.70;64.90;;;;;;5083821;28;20033;-37
2021/08/05 07:50:15;;;;;;;8.68;7.75;;;23.70;65.00;;;;;;5083879;28;20044;-37
2021/08/05 07:52:42;;;;;;;9.85;8.55;;;23.70;65.00;;;;;;5083590;28;20481;-37
2021/08/05 07:55:08;;;;;;;9.85;8.85;;;23.70;65.00;;;;;;5082720;28;20028;-37
2021/08/05 07:57:35;;;;;;;9.80;8.80;;;23.60;65.00;;;;;;5083427;28;20040;-37
2021/08/05 08:00:01;;;;;;;10.10;8.83;;;23.60;65.00;;;;;;5082243;28;20107;-37
2021/08/05 08:02:28;;;;;;;9.13;8.23;;;23.60;65.00;;;;;;5083596;28;20055;-38
2021/08/05 08:04:54;;;;;;;10.05;8.60;;;23.60;65.10;;;;;;5065264;28;20100;-39
2021/08/05 08:07:20;;;;;;;10.32;9.23;;;23.60;65.10;;;;;;5076065;28;20426;-37
2021/08/05 08:09:46;;;;;;;9.35;7.97;;;23.60;65.10;;;;;;5075866;28;20033;-37
2021/08/05 08:12:12;;;;;;;9.98;8.95;;;23.60;65.10;;;;;;5083290;28;20023;-37
2021/08/05 08:14:39;;;;;;;9.30;8.38;;;23.60;65.10;;;;;;5083522;28;20038;-37
2021/08/05 08:17:05;;;;;;;9.75;8.60;;;23.60;65.20;;;;;;5083232;28;20020;-36
2021/08/05 08:19:32;;;;;;;9.52;8.52;;;23.60;65.20;;;;;;5079949;28;20032;-37
2021/08/05 08:22:00;;;;;;;9.25;8.35;;;23.60;65.20;;;;;;5082947;28;20112;-38
2021/08/05 08:24:27;;;;;;;9.40;8.40;;;23.60;65.20;;;;;;5083034;28;20040;-37
2021/08/05 08:26:53;;;;;;;9.85;8.82;;;23.60;65.20;;;;;;5082778;28;20025;-37
2021/08/05 08:29:19;;;;;;;10.00;8.90;;;23.60;65.30;;;;;;5080495;28;20076;-37
2021/08/05 08:31:48;;;;;;;9.07;7.90;;;23.60;65.30;;;;;;5083024;28;20024;-37
2021/08/05 08:34:15;;;;;;;9.18;8.27;;;23.60;65.40;;;;;;5082924;28;20029;-36
2021/08/05 08:36:42;;;;;;;11.57;8.67;;;23.60;65.40;;;;;;5080742;28;20029;-37
2021/08/05 08:39:08;;;;;;;10.15;8.95;;;23.60;65.40;;;;;;5069993;28;20042;-37
2021/08/05 08:41:36;;;;;;;9.70;8.70;;;23.50;65.40;;;;;;5083024;28;20039;-37
2021/08/05 08:44:02;;;;;;;9.32;8.15;;;23.50;65.40;;;;;;5081375;28;20552;-37
2021/08/05 08:46:33;;;;;;;9.10;8.20;;;23.60;66.20;;;;;;5082872;28;20028;-37
2021/08/05 08:49:00;;;;;;;9.55;8.45;;;23.50;65.40;;;;;;5081259;28;20112;-37
2021/08/05 08:51:26;;;;;;;9.90;8.90;;;23.50;65.40;;;;;;5081370;28;20051;-37
2021/08/05 08:53:52;;;;;;;10.10;9.10;;;23.50;65.50;;;;;;5081376;28;20020;-37
2021/08/05 08:56:20;;;;;;;10.48;8.82;;;23.50;65.50;;;;;;5082624;28;20029;-37
2021/08/05 08:58:46;;;;;;;9.38;8.38;;;23.50;65.50;;;;;;5082623;28;20028;-38
2021/08/05 09:01:12;;;;;;;10.45;8.73;;;23.50;65.50;;;;;;5081327;28;20035;-37
2021/08/05 09:03:39;;;;;;;10.13;9.07;;;23.50;65.50;;;;;;5082544;28;20095;-37
2021/08/05 09:06:05;;;;;;;8.77;7.87;;;23.50;65.50;;;;;;5081161;28;20032;-37
2021/08/05 09:08:31;;;;;;;9.82;8.82;;;23.50;65.60;;;;;;5067094;28;20084;-37
2021/08/05 09:10:57;;;;;;;9.68;8.43;;;23.50;65.60;;;;;;5082567;28;20193;-37
2021/08/05 09:13:24;;;;;;;9.63;8.65;;;23.50;65.70;;;;;;5082544;28;20028;-37
2021/08/05 09:15:50;;;;;;;9.57;8.15;;;23.50;65.70;;;;;;5078765;28;20037;-37
2021/08/05 09:18:26;;;;;;;9.18;8.27;;;23.50;65.70;;;;;;5082549;28;20028;-36
2021/08/05 09:21:15;;;;;;;9.45;8.45;;;23.50;65.70;;;;;;5082241;28;20089;-37
2021/08/05 09:23:54;;;;;;;10.07;8.73;;;23.40;65.70;;;;;;5082375;28;20035;-37
2021/08/05 09:26:36;;;;;;;9.43;8.43;;;23.50;65.70;;;;;;5082241;28;20036;-37
2021/08/05 09:29:15;;;;;;;9.30;8.30;;;23.40;65.70;;;;;;5082233;28;20036;-37
2021/08/05 09:31:51;;;;;;;9.88;8.88;;;23.40;65.70;;;;;;5082557;28;20088;-37
2021/08/05 09:34:19;;;;;;;9.55;8.55;;;23.40;65.80;;;;;;5082457;28;20058;-37
2021/08/05 09:36:46;;;;;;;10.15;8.60;;;23.40;65.80;;;;;;5079766;28;20021;-37
2021/08/05 09:39:22;;;;;;;9.55;8.23;;;23.50;65.80;;;;;;5062133;28;20056;-37
2021/08/05 09:41:58;;;;;;;8.98;8.07;;;23.40;65.80;;;;;;5062250;28;20028;-37
2021/08/05 09:44:41;;;;;;;10.25;8.57;;;23.40;65.80;;;;;;5062136;28;20041;-37
2021/08/05 09:47:09;;;;;;;9.05;8.15;;;23.40;65.90;;;;;;5061090;28;20021;-37
2021/08/05 09:49:54;;;;;;;10.25;9.02;;;23.40;65.90;;;;;;5062028;28;20109;-37
2021/08/05 09:52:28;;;;;;;9.38;8.38;;;23.40;65.90;;;;;;5062204;28;20025;-38
2021/08/05 09:54:54;;;;;;;9.60;8.63;;;23.40;66.00;;;;;;5062019;28;20029;-37
2021/08/05 09:57:37;;;;;;;10.13;8.05;;;23.40;66.00;;;;;;5062213;28;20017;-37
2021/08/05 10:00:08;;;;;;;10.52;8.32;;;23.40;66.00;;;;;;5060679;28;20028;-36
2021/08/05 10:02:41;;;;;;;8.95;8.05;;;23.40;66.10;;;;;;5062265;28;20031;-37
2021/08/05 10:05:14;;;;;;;9.73;8.27;;;23.30;66.00;;;;;;5061792;28;20033;-37
2021/08/05 10:07:44;;;;;;;10.10;8.05;;;23.30;66.00;;;;;;5052144;28;20034;-37
2021/08/05 10:10:11;;;;;;;9.32;8.15;;;23.30;66.00;;;;;;5073154;28;20025;-37
2021/08/05 10:12:38;;;;;;;9.05;8.18;;;23.30;66.10;;;;;;5082338;28;20078;-37
2021/08/05 10:15:12;;;;;;;10.23;9.13;;;23.30;66.10;;;;;;5080823;28;20028;-37
2021/08/05 10:17:38;;;;;;;8.40;7.50;;;23.30;66.10;;;;;;5082627;28;20025;-37
2021/08/05 10:20:07;;;;;;;9.95;8.48;;;23.40;66.20;;;;;;5085426;28;20035;-37
2021/08/05 10:22:33;;;;;;;9.27;8.23;;;23.30;66.10;;;;;;5085447;28;20049;-37
2021/08/05 10:25:00;;;;;;;9.65;8.52;;;23.30;66.10;;;;;;5068990;28;20040;-37
2021/08/05 10:27:26;;;;;;;9.48;8.20;;;23.30;66.20;;;;;;5064330;28;20055;-37
2021/08/05 10:29:52;;;;;;;9.48;7.88;;;23.30;66.20;;;;;;5065270;28;20029;-37
2021/08/05 10:32:19;;;;;;;9.45;8.48;;;23.30;66.20;;;;;;5064300;28;20081;-37
2021/08/05 10:34:45;;;;;;;9.25;8.30;;;23.30;66.30;;;;;;5066574;28;20067;-37
2021/08/05 10:37:12;;;;;;;9.38;8.32;;;23.30;66.30;;;;;;5077813;28;20029;-37
2021/08/05 10:39:40;;;;;;;9.43;7.50;;;23.30;66.30;;;;;;5065158;28;20036;-37
2021/08/05 10:42:08;;;;;;;9.05;8.15;;;23.30;66.30;;;;;;5063930;28;20056;-37
2021/08/05 10:44:39;;;;;;;8.82;7.93;;;23.30;66.40;;;;;;5065343;28;20095;-37
2021/08/05 10:47:06;;;;;;;9.13;8.23;;;23.30;66.40;;;;;;5065374;28;20037;-36
2021/08/05 10:49:33;;;;;;;9.25;8.35;;;23.30;66.40;;;;;;5063564;28;20052;-37
2021/08/05 10:51:59;;;;;;;9.43;8.43;;;23.30;66.40;;;;;;5063877;28;20067;-37
2021/08/05 10:54:47;;;;;;;9.52;8.63;;;23.30;66.50;;;;;;5063650;28;20025;-37
2021/08/05 10:57:24;;;;;;;9.23;8.23;;;23.30;66.50;;;;;;5065040;28;20025;-37
2021/08/05 11:00:05;;;;;;;8.80;7.75;;;23.30;66.50;;;;;;5064858;28;20039;-37
2021/08/05 11:02:51;;;;;;;10.05;8.57;;;23.20;66.50;;;;;;5064873;28;20017;-37
2021/08/05 11:05:26;;;;;;;9.73;8.73;;;23.20;66.50;;;;;;5064767;28;20033;-37
2021/08/05 11:07:52;;;;;;;8.88;7.95;;;23.30;66.60;;;;;;5064906;28;20021;-37
2021/08/05 11:10:25;;;;;;;9.75;8.52;;;23.20;66.50;;;;;;5081607;28;20039;-36
2021/08/05 11:13:10;;;;;;;14.52;7.97;;;23.20;66.50;;;;;;5084807;28;20052;-37
2021/08/05 11:15:36;;;;;;;8.85;7.90;;;23.20;66.60;;;;;;5071100;28;20032;-37
2021/08/05 11:18:17;;;;;;;9.40;8.48;;;23.20;66.60;;;;;;5064649;28;20115;-37
2021/08/05 11:20:45;;;;;;;8.80;7.90;;;23.20;66.60;;;;;;5064340;28;20068;-37
2021/08/05 11:23:37;;;;;;;8.93;7.55;;;23.20;66.60;;;;;;5064602;28;20628;-37
2021/08/05 11:26:06;;;;;;;9.10;8.20;;;23.20;66.60;;;;;;5064518;28;20101;-37
2021/08/05 11:28:41;;;;;;;8.90;8.00;;;23.20;66.70;;;;;;5064550;28;20021;-37
2021/08/05 11:31:23;;;;;;;9.43;8.52;;;23.20;66.70;;;;;;5064247;28;20032;-37
2021/08/05 11:33:54;;;;;;;9.00;8.10;;;23.20;66.70;;;;;;5064349;28;20059;-37
2021/08/05 11:36:22;;;;;;;8.75;7.57;;;23.20;66.80;;;;;;5064368;28;20021;-37
2021/08/05 11:39:27;;;;;;;8.85;7.90;;;23.20;66.80;;;;;;5064433;28;20025;-37
2021/08/05 11:42:15;;;;;;;8.55;7.68;;;23.20;66.80;;;;;;5064283;28;20071;-37
2021/08/05 11:44:47;;;;;;;8.70;7.80;;;23.20;66.80;;;;;;5063524;28;20048;-37
2021/08/05 11:47:24;;;;;;;10.95;8.35;;;23.10;66.80;;;;;;5064134;28;20108;-37
2021/08/05 11:50:03;;;;;;;10.25;8.07;;;23.20;66.90;;;;;;5063945;28;20051;-37
2021/08/05 11:52:29;;;;;;;8.98;8.02;;;23.20;66.90;;;;;;5063961;28;20021;-37
2021/08/05 11:55:04;;;;;;;8.40;7.35;;;23.20;66.90;;;;;;5063977;28;20086;-37
2021/08/05 11:57:52;;;;;;;8.60;7.70;;;23.20;67.00;;;;;;5064072;28;20071;-37
2021/08/05 12:00:19;;;;;;;;;;;23.10;66.90;;;;;;5064250;28;20533;-36
2021/08/05 12:02:46;;;;;;;8.30;7.25;;;23.10;66.90;;;;;;5063873;28;20288;-37
2021/08/05 12:05:13;;;;;;;9.20;8.30;;;23.10;66.90;;;;;;5063660;28;20045;-36
2021/08/05 12:07:40;;;;;;;9.20;8.20;;;23.10;66.90;;;;;;5073499;28;20036;-37
2021/08/05 12:10:14;;;;;;;9.00;8.10;;;23.10;66.90;;;;;;5068551;28;20033;-37
2021/08/05 12:12:44;;;;;;;8.52;7.63;;;23.10;66.90;;;;;;5063628;28;20021;-37
2021/08/05 12:15:15;;;;;;;8.38;7.57;;;23.10;67.00;;;;;;5062110;28;20031;-37
2021/08/05 12:17:43;;;;;;;8.80;7.82;;;23.10;67.00;;;;;;5063623;28;20032;-38
2021/08/05 12:20:15;;;;;;;9.77;7.90;;;23.10;67.00;;;;;;5063448;28;20040;-37
2021/08/05 12:22:47;;;;;;;8.60;7.63;;;23.10;67.00;;;;;;5063418;28;20076;-36
2021/08/05 12:25:42;;;;;;;8.85;7.95;;;23.10;67.00;;;;;;5063427;28;20036;-37
2021/08/05 12:28:13;;;;;;;8.65;7.65;;;23.10;67.00;;;;;;5062586;28;20067;-36
2021/08/05 12:30:39;;;;;;;8.70;7.80;;;23.10;67.10;;;;;;5083278;28;20051;-37
2021/08/05 12:33:08;;;;;;;8.05;7.25;;;23.10;67.10;;;;;;5075093;28;20031;-37
2021/08/05 12:35:34;;;;;;;8.48;7.65;;;23.10;67.10;;;;;;5083251;28;20029;-37
2021/08/05 12:38:05;;;;;;;7.72;6.93;;;23.10;67.10;;;;;;5083250;28;20049;-37
2021/08/05 12:40:32;;;;;;;9.00;7.50;;;23.10;67.10;;;;;;5063981;28;20029;-36
2021/08/05 12:42:58;;;;;;;8.45;7.63;;;23.10;67.00;;;;;;5063176;28;20025;-36
2021/08/05 12:45:27;;;;;;;8.60;7.70;;;23.10;67.00;;;;;;5063058;28;20040;-37
2021/08/05 12:47:53;;;;;;;8.70;7.65;;;23.10;67.00;;;;;;5063417;28;20115;-37
2021/08/05 12:50:19;;;;;;;9.32;7.80;;;23.10;67.10;;;;;;5061509;28;20043;-36
2021/08/05 12:52:46;;;;;;;8.02;7.00;;;23.10;67.10;;;;;;5045208;28;20014;-36